sensor_id;sensor_type;location;lat;lon;timestamp;P1;durP1;ratioP1;P2;durP2;ratioP2
48613;SDS011;34408;51.426;5.444;2023-03-01T00:01:09;8.40;;;4.18;;
48613;SDS011;34408;51.426;5.444;2023-03-01T00:03:40;7.43;;;4.20;;
48613;SDS011;34408;51.426;5.444;2023-03-01T00:06:08;6.55;;;4.20;;
48613;SDS011;34408;51.426;5.444;2023-03-01T00:08:36;6.47;;;3.90;;
48613;SDS011;34408;51.426;5.444;2023-03-01T00:11:05;6.38;;;3.92;;
48613;SDS011;34408;51.426;5.444;2023-03-01T00:13:35;5.03;;;3.65;;
48613;SDS011;34408;51.426;5.444;2023-03-01T00:16:03;6.90;;;3.67;;
48613;SDS011;34408;51.426;5.444;2023-03-01T00:18:32;4.97;;;3.60;;
48613;SDS011;34408;51.426;5.444;2023-03-01T00:21:02;6.43;;;3.88;;
48613;SDS011;34408;51.426;5.444;2023-03-01T00:23:30;6.68;;;4.43;;
48613;SDS011;34408;51.426;5.444;2023-03-01T00:25:58;7.90;;;4.30;;
48613;SDS011;34408;51.426;5.444;2023-03-01T00:28:26;6.18;;;4.40;;
48613;SDS011;34408;51.426;5.444;2023-03-01T00:30:53;6.13;;;4.00;;
48613;SDS011;34408;51.426;5.444;2023-03-01T00:33:21;6.75;;;3.88;;
48613;SDS011;34408;51.426;5.444;2023-03-01T00:35:49;7.72;;;4.18;;
48613;SDS011;34408;51.426;5.444;2023-03-01T00:38:18;6.07;;;3.80;;
48613;SDS011;34408;51.426;5.444;2023-03-01T00:40:46;8.68;;;4.10;;
48613;SDS011;34408;51.426;5.444;2023-03-01T00:43:13;6.07;;;4.00;;
48613;SDS011;34408;51.426;5.444;2023-03-01T00:45:41;7.35;;;4.20;;
48613;SDS011;34408;51.426;5.444;2023-03-01T00:48:09;6.90;;;3.55;;
48613;SDS011;34408;51.426;5.444;2023-03-01T00:50:37;7.57;;;4.25;;
48613;SDS011;34408;51.426;5.444;2023-03-01T00:53:05;6.38;;;3.90;;
48613;SDS011;34408;51.426;5.444;2023-03-01T00:55:34;5.47;;;3.75;;
48613;SDS011;34408;51.426;5.444;2023-03-01T00:58:03;4.97;;;3.40;;
48613;SDS011;34408;51.426;5.444;2023-03-01T01:00:31;7.30;;;4.38;;
48613;SDS011;34408;51.426;5.444;2023-03-01T01:02:59;6.20;;;3.83;;
48613;SDS011;34408;51.426;5.444;2023-03-01T01:05:27;7.22;;;4.28;;
48613;SDS011;34408;51.426;5.444;2023-03-01T01:07:55;6.22;;;4.20;;
48613;SDS011;34408;51.426;5.444;2023-03-01T01:10:23;5.50;;;3.13;;
48613;SDS011;34408;51.426;5.444;2023-03-01T01:12:52;5.90;;;3.80;;
48613;SDS011;34408;51.426;5.444;2023-03-01T01:15:19;8.68;;;3.97;;
48613;SDS011;34408;51.426;5.444;2023-03-01T01:17:47;7.18;;;4.18;;
48613;SDS011;34408;51.426;5.444;2023-03-01T01:20:15;6.50;;;3.90;;
48613;SDS011;34408;51.426;5.444;2023-03-01T01:22:43;6.40;;;4.13;;
48613;SDS011;34408;51.426;5.444;2023-03-01T01:25:11;6.30;;;3.53;;
48613;SDS011;34408;51.426;5.444;2023-03-01T01:27:39;7.70;;;3.90;;
48613;SDS011;34408;51.426;5.444;2023-03-01T01:30:09;7.93;;;4.10;;
48613;SDS011;34408;51.426;5.444;2023-03-01T01:32:38;7.70;;;4.45;;
48613;SDS011;34408;51.426;5.444;2023-03-01T01:35:06;6.40;;;3.72;;
48613;SDS011;34408;51.426;5.444;2023-03-01T01:37:34;6.65;;;4.22;;
48613;SDS011;34408;51.426;5.444;2023-03-01T01:40:02;5.82;;;3.88;;
48613;SDS011;34408;51.426;5.444;2023-03-01T01:42:31;5.22;;;4.00;;
48613;SDS011;34408;51.426;5.444;2023-03-01T01:47:59;6.60;;;3.95;;
48613;SDS011;34408;51.426;5.444;2023-03-01T01:50:30;5.90;;;3.90;;
48613;SDS011;34408;51.426;5.444;2023-03-01T01:53:05;5.85;;;4.15;;
48613;SDS011;34408;51.426;5.444;2023-03-01T01:55:36;8.05;;;4.53;;
48613;SDS011;34408;51.426;5.444;2023-03-01T01:58:07;6.28;;;3.50;;
48613;SDS011;34408;51.426;5.444;2023-03-01T02:00:38;7.30;;;4.30;;
48613;SDS011;34408;51.426;5.444;2023-03-01T02:03:08;6.25;;;4.15;;
48613;SDS011;34408;51.426;5.444;2023-03-01T02:05:40;6.05;;;3.65;;
48613;SDS011;34408;51.426;5.444;2023-03-01T02:08:21;4.82;;;3.70;;
48613;SDS011;34408;51.426;5.444;2023-03-01T02:10:52;9.07;;;3.92;;
48613;SDS011;34408;51.426;5.444;2023-03-01T02:13:21;10.88;;;4.57;;
48613;SDS011;34408;51.426;5.444;2023-03-01T02:15:51;9.30;;;4.10;;
48613;SDS011;34408;51.426;5.444;2023-03-01T02:18:20;6.28;;;4.40;;
48613;SDS011;34408;51.426;5.444;2023-03-01T02:20:54;7.47;;;4.25;;
48613;SDS011;34408;51.426;5.444;2023-03-01T02:23:33;8.65;;;4.10;;
48613;SDS011;34408;51.426;5.444;2023-03-01T02:26:03;7.38;;;3.92;;
48613;SDS011;34408;51.426;5.444;2023-03-01T02:28:38;6.72;;;4.60;;
48613;SDS011;34408;51.426;5.444;2023-03-01T02:31:09;6.32;;;3.92;;
48613;SDS011;34408;51.426;5.444;2023-03-01T02:33:55;6.18;;;3.88;;
48613;SDS011;34408;51.426;5.444;2023-03-01T02:36:24;5.30;;;3.83;;
48613;SDS011;34408;51.426;5.444;2023-03-01T02:38:55;7.40;;;4.22;;
48613;SDS011;34408;51.426;5.444;2023-03-01T02:41:26;4.97;;;3.72;;
48613;SDS011;34408;51.426;5.444;2023-03-01T02:43:59;6.95;;;4.18;;
48613;SDS011;34408;51.426;5.444;2023-03-01T02:46:27;8.02;;;4.75;;
48613;SDS011;34408;51.426;5.444;2023-03-01T02:48:56;5.97;;;3.75;;
48613;SDS011;34408;51.426;5.444;2023-03-01T02:51:34;7.20;;;4.07;;
48613;SDS011;34408;51.426;5.444;2023-03-01T02:54:15;8.77;;;4.05;;
48613;SDS011;34408;51.426;5.444;2023-03-01T02:56:50;5.97;;;4.32;;
48613;SDS011;34408;51.426;5.444;2023-03-01T02:59:21;7.72;;;3.70;;
48613;SDS011;34408;51.426;5.444;2023-03-01T03:01:51;9.52;;;4.28;;
48613;SDS011;34408;51.426;5.444;2023-03-01T03:04:19;5.90;;;4.03;;
48613;SDS011;34408;51.426;5.444;2023-03-01T03:06:48;7.15;;;4.95;;
48613;SDS011;34408;51.426;5.444;2023-03-01T03:09:18;7.22;;;4.82;;
48613;SDS011;34408;51.426;5.444;2023-03-01T03:11:46;5.80;;;3.80;;
48613;SDS011;34408;51.426;5.444;2023-03-01T03:14:15;6.15;;;3.72;;
48613;SDS011;34408;51.426;5.444;2023-03-01T03:16:46;6.32;;;4.03;;
48613;SDS011;34408;51.426;5.444;2023-03-01T03:19:15;6.55;;;4.32;;
48613;SDS011;34408;51.426;5.444;2023-03-01T03:21:43;6.60;;;4.32;;
48613;SDS011;34408;51.426;5.444;2023-03-01T03:24:11;6.75;;;4.10;;
48613;SDS011;34408;51.426;5.444;2023-03-01T03:26:39;8.25;;;4.93;;
48613;SDS011;34408;51.426;5.444;2023-03-01T03:29:06;7.90;;;4.38;;
48613;SDS011;34408;51.426;5.444;2023-03-01T03:31:34;5.60;;;4.05;;
48613;SDS011;34408;51.426;5.444;2023-03-01T03:34:03;7.57;;;3.97;;
48613;SDS011;34408;51.426;5.444;2023-03-01T03:36:31;6.90;;;4.10;;
48613;SDS011;34408;51.426;5.444;2023-03-01T03:38:59;6.22;;;4.22;;
48613;SDS011;34408;51.426;5.444;2023-03-01T03:41:26;6.45;;;4.13;;
48613;SDS011;34408;51.426;5.444;2023-03-01T03:43:54;7.50;;;4.45;;
48613;SDS011;34408;51.426;5.444;2023-03-01T03:46:22;7.57;;;3.88;;
48613;SDS011;34408;51.426;5.444;2023-03-01T03:48:49;5.35;;;3.90;;
48613;SDS011;34408;51.426;5.444;2023-03-01T03:51:19;8.25;;;4.70;;
48613;SDS011;34408;51.426;5.444;2023-03-01T03:53:48;5.75;;;4.20;;
48613;SDS011;34408;51.426;5.444;2023-03-01T03:56:16;7.55;;;4.65;;
48613;SDS011;34408;51.426;5.444;2023-03-01T03:58:44;6.72;;;4.07;;
48613;SDS011;34408;51.426;5.444;2023-03-01T04:01:12;8.85;;;4.70;;
48613;SDS011;34408;51.426;5.444;2023-03-01T04:03:39;5.53;;;3.92;;
48613;SDS011;34408;51.426;5.444;2023-03-01T04:06:13;7.07;;;4.10;;
48613;SDS011;34408;51.426;5.444;2023-03-01T04:08:42;7.10;;;4.20;;
48613;SDS011;34408;51.426;5.444;2023-03-01T04:11:10;8.15;;;5.10;;
48613;SDS011;34408;51.426;5.444;2023-03-01T04:13:55;7.10;;;4.13;;
48613;SDS011;34408;51.426;5.444;2023-03-01T04:16:24;8.13;;;4.18;;
48613;SDS011;34408;51.426;5.444;2023-03-01T04:18:52;10.38;;;4.65;;
48613;SDS011;34408;51.426;5.444;2023-03-01T04:21:20;10.07;;;4.50;;
48613;SDS011;34408;51.426;5.444;2023-03-01T04:23:50;6.57;;;4.20;;
48613;SDS011;34408;51.426;5.444;2023-03-01T04:26:19;8.98;;;4.20;;
48613;SDS011;34408;51.426;5.444;2023-03-01T04:28:47;6.00;;;4.28;;
48613;SDS011;34408;51.426;5.444;2023-03-01T04:31:17;8.63;;;4.50;;
48613;SDS011;34408;51.426;5.444;2023-03-01T04:33:48;8.32;;;4.60;;
48613;SDS011;34408;51.426;5.444;2023-03-01T04:36:18;6.95;;;4.53;;
48613;SDS011;34408;51.426;5.444;2023-03-01T04:38:47;6.53;;;4.20;;
48613;SDS011;34408;51.426;5.444;2023-03-01T04:41:17;6.90;;;4.32;;
48613;SDS011;34408;51.426;5.444;2023-03-01T04:43:46;6.28;;;4.25;;
48613;SDS011;34408;51.426;5.444;2023-03-01T04:46:15;7.38;;;4.32;;
48613;SDS011;34408;51.426;5.444;2023-03-01T04:48:45;6.53;;;4.25;;
48613;SDS011;34408;51.426;5.444;2023-03-01T04:51:13;7.30;;;4.50;;
48613;SDS011;34408;51.426;5.444;2023-03-01T04:53:42;7.30;;;4.75;;
48613;SDS011;34408;51.426;5.444;2023-03-01T04:56:11;8.43;;;4.47;;
48613;SDS011;34408;51.426;5.444;2023-03-01T04:58:41;7.00;;;4.35;;
48613;SDS011;34408;51.426;5.444;2023-03-01T05:01:09;8.10;;;4.30;;
48613;SDS011;34408;51.426;5.444;2023-03-01T05:03:42;9.85;;;4.40;;
48613;SDS011;34408;51.426;5.444;2023-03-01T05:06:10;9.25;;;4.68;;
48613;SDS011;34408;51.426;5.444;2023-03-01T05:08:39;7.82;;;4.65;;
48613;SDS011;34408;51.426;5.444;2023-03-01T05:11:07;8.15;;;4.43;;
48613;SDS011;34408;51.426;5.444;2023-03-01T05:13:36;7.63;;;4.50;;
48613;SDS011;34408;51.426;5.444;2023-03-01T05:16:06;10.27;;;5.13;;
48613;SDS011;34408;51.426;5.444;2023-03-01T05:18:37;8.25;;;4.43;;
48613;SDS011;34408;51.426;5.444;2023-03-01T05:21:06;7.43;;;4.85;;
48613;SDS011;34408;51.426;5.444;2023-03-01T05:23:36;12.05;;;5.85;;
48613;SDS011;34408;51.426;5.444;2023-03-01T05:26:05;9.70;;;4.47;;
48613;SDS011;34408;51.426;5.444;2023-03-01T05:28:47;8.35;;;4.40;;
48613;SDS011;34408;51.426;5.444;2023-03-01T05:31:17;8.23;;;4.57;;
48613;SDS011;34408;51.426;5.444;2023-03-01T05:33:45;7.03;;;4.40;;
48613;SDS011;34408;51.426;5.444;2023-03-01T05:36:13;8.57;;;4.15;;
48613;SDS011;34408;51.426;5.444;2023-03-01T05:38:40;6.30;;;4.28;;
48613;SDS011;34408;51.426;5.444;2023-03-01T05:41:13;7.10;;;4.63;;
48613;SDS011;34408;51.426;5.444;2023-03-01T05:43:41;11.07;;;5.28;;
48613;SDS011;34408;51.426;5.444;2023-03-01T05:46:11;8.35;;;4.70;;
48613;SDS011;34408;51.426;5.444;2023-03-01T05:48:42;5.95;;;4.03;;
48613;SDS011;34408;51.426;5.444;2023-03-01T05:51:10;8.90;;;4.53;;
48613;SDS011;34408;51.426;5.444;2023-03-01T05:53:38;7.72;;;4.90;;
48613;SDS011;34408;51.426;5.444;2023-03-01T05:56:06;8.98;;;4.50;;
48613;SDS011;34408;51.426;5.444;2023-03-01T05:58:34;6.63;;;4.68;;
48613;SDS011;34408;51.426;5.444;2023-03-01T06:01:04;8.18;;;4.90;;
48613;SDS011;34408;51.426;5.444;2023-03-01T06:03:32;8.88;;;4.80;;
48613;SDS011;34408;51.426;5.444;2023-03-01T06:06:01;7.53;;;4.45;;
48613;SDS011;34408;51.426;5.444;2023-03-01T06:08:29;7.55;;;4.53;;
48613;SDS011;34408;51.426;5.444;2023-03-01T06:10:57;9.30;;;5.07;;
48613;SDS011;34408;51.426;5.444;2023-03-01T06:13:24;8.25;;;5.13;;
48613;SDS011;34408;51.426;5.444;2023-03-01T06:15:52;6.30;;;4.55;;
48613;SDS011;34408;51.426;5.444;2023-03-01T06:18:20;10.95;;;4.70;;
48613;SDS011;34408;51.426;5.444;2023-03-01T06:20:52;6.82;;;4.75;;
48613;SDS011;34408;51.426;5.444;2023-03-01T06:23:22;9.07;;;4.53;;
48613;SDS011;34408;51.426;5.444;2023-03-01T06:25:49;7.15;;;3.92;;
48613;SDS011;34408;51.426;5.444;2023-03-01T06:28:18;9.50;;;4.50;;
48613;SDS011;34408;51.426;5.444;2023-03-01T06:30:46;6.70;;;3.90;;
48613;SDS011;34408;51.426;5.444;2023-03-01T06:33:14;8.23;;;5.03;;
48613;SDS011;34408;51.426;5.444;2023-03-01T06:35:42;12.00;;;5.00;;
48613;SDS011;34408;51.426;5.444;2023-03-01T06:38:10;11.63;;;5.03;;
48613;SDS011;34408;51.426;5.444;2023-03-01T06:40:39;6.97;;;4.43;;
48613;SDS011;34408;51.426;5.444;2023-03-01T06:43:07;7.59;;;4.57;;
48613;SDS011;34408;51.426;5.444;2023-03-01T06:45:36;8.20;;;5.20;;
48613;SDS011;34408;51.426;5.444;2023-03-01T06:48:04;7.97;;;4.85;;
48613;SDS011;34408;51.426;5.444;2023-03-01T06:50:33;10.38;;;4.75;;
48613;SDS011;34408;51.426;5.444;2023-03-01T06:53:01;12.48;;;5.93;;
48613;SDS011;34408;51.426;5.444;2023-03-01T06:55:30;6.88;;;4.60;;
48613;SDS011;34408;51.426;5.444;2023-03-01T06:58:00;8.50;;;4.78;;
48613;SDS011;34408;51.426;5.444;2023-03-01T07:00:28;8.73;;;4.90;;
48613;SDS011;34408;51.426;5.444;2023-03-01T07:02:58;7.63;;;5.00;;
48613;SDS011;34408;51.426;5.444;2023-03-01T07:05:26;7.90;;;5.03;;
48613;SDS011;34408;51.426;5.444;2023-03-01T07:07:54;8.88;;;4.57;;
48613;SDS011;34408;51.426;5.444;2023-03-01T07:10:22;12.52;;;5.07;;
48613;SDS011;34408;51.426;5.444;2023-03-01T07:12:53;8.20;;;5.18;;
48613;SDS011;34408;51.426;5.444;2023-03-01T07:15:23;7.85;;;6.05;;
48613;SDS011;34408;51.426;5.444;2023-03-01T07:17:52;8.07;;;5.15;;
48613;SDS011;34408;51.426;5.444;2023-03-01T07:20:19;8.02;;;5.38;;
48613;SDS011;34408;51.426;5.444;2023-03-01T07:22:50;10.63;;;5.07;;
48613;SDS011;34408;51.426;5.444;2023-03-01T07:25:18;7.45;;;5.10;;
48613;SDS011;34408;51.426;5.444;2023-03-01T07:27:48;9.57;;;5.07;;
48613;SDS011;34408;51.426;5.444;2023-03-01T07:30:16;7.22;;;4.88;;
48613;SDS011;34408;51.426;5.444;2023-03-01T07:32:46;9.48;;;5.75;;
48613;SDS011;34408;51.426;5.444;2023-03-01T07:35:14;9.25;;;5.93;;
48613;SDS011;34408;51.426;5.444;2023-03-01T07:37:42;7.72;;;5.15;;
48613;SDS011;34408;51.426;5.444;2023-03-01T07:40:10;10.55;;;5.68;;
48613;SDS011;34408;51.426;5.444;2023-03-01T07:42:39;11.25;;;5.47;;
48613;SDS011;34408;51.426;5.444;2023-03-01T07:45:07;10.57;;;5.65;;
48613;SDS011;34408;51.426;5.444;2023-03-01T07:47:35;10.60;;;5.35;;
48613;SDS011;34408;51.426;5.444;2023-03-01T07:50:05;8.18;;;5.13;;
48613;SDS011;34408;51.426;5.444;2023-03-01T07:52:33;7.28;;;4.85;;
48613;SDS011;34408;51.426;5.444;2023-03-01T07:55:01;8.45;;;5.10;;
48613;SDS011;34408;51.426;5.444;2023-03-01T07:57:29;9.70;;;5.00;;
48613;SDS011;34408;51.426;5.444;2023-03-01T07:59:57;11.20;;;5.45;;
48613;SDS011;34408;51.426;5.444;2023-03-01T08:02:25;7.68;;;4.70;;
48613;SDS011;34408;51.426;5.444;2023-03-01T08:04:53;14.75;;;5.93;;
48613;SDS011;34408;51.426;5.444;2023-03-01T08:07:22;8.65;;;5.10;;
48613;SDS011;34408;51.426;5.444;2023-03-01T08:09:49;12.60;;;5.57;;
48613;SDS011;34408;51.426;5.444;2023-03-01T08:12:17;14.88;;;6.18;;
48613;SDS011;34408;51.426;5.444;2023-03-01T08:14:45;9.38;;;5.10;;
48613;SDS011;34408;51.426;5.444;2023-03-01T08:17:13;7.28;;;5.30;;
48613;SDS011;34408;51.426;5.444;2023-03-01T08:19:42;7.90;;;4.72;;
48613;SDS011;34408;51.426;5.444;2023-03-01T08:22:10;9.48;;;5.32;;
48613;SDS011;34408;51.426;5.444;2023-03-01T08:24:39;10.85;;;4.97;;
48613;SDS011;34408;51.426;5.444;2023-03-01T08:27:06;11.65;;;6.45;;
48613;SDS011;34408;51.426;5.444;2023-03-01T08:29:34;9.68;;;5.10;;
48613;SDS011;34408;51.426;5.444;2023-03-01T08:32:02;7.20;;;4.95;;
48613;SDS011;34408;51.426;5.444;2023-03-01T08:34:30;7.28;;;4.28;;
48613;SDS011;34408;51.426;5.444;2023-03-01T08:36:58;7.13;;;4.82;;
48613;SDS011;34408;51.426;5.444;2023-03-01T08:39:26;7.65;;;5.00;;
48613;SDS011;34408;51.426;5.444;2023-03-01T08:41:55;9.50;;;5.43;;
48613;SDS011;34408;51.426;5.444;2023-03-01T08:44:24;6.93;;;4.70;;
48613;SDS011;34408;51.426;5.444;2023-03-01T08:46:52;13.80;;;5.50;;
48613;SDS011;34408;51.426;5.444;2023-03-01T08:49:21;8.63;;;5.25;;
48613;SDS011;34408;51.426;5.444;2023-03-01T08:51:49;9.15;;;5.38;;
48613;SDS011;34408;51.426;5.444;2023-03-01T08:54:18;9.20;;;4.93;;
48613;SDS011;34408;51.426;5.444;2023-03-01T08:56:47;9.30;;;5.45;;
48613;SDS011;34408;51.426;5.444;2023-03-01T08:59:17;12.02;;;5.13;;
48613;SDS011;34408;51.426;5.444;2023-03-01T09:01:45;8.38;;;5.28;;
48613;SDS011;34408;51.426;5.444;2023-03-01T09:04:14;11.55;;;5.75;;
48613;SDS011;34408;51.426;5.444;2023-03-01T09:06:42;9.68;;;5.05;;
48613;SDS011;34408;51.426;5.444;2023-03-01T09:09:12;8.52;;;5.05;;
48613;SDS011;34408;51.426;5.444;2023-03-01T09:11:42;8.93;;;4.88;;
48613;SDS011;34408;51.426;5.444;2023-03-01T09:14:12;8.20;;;4.70;;
48613;SDS011;34408;51.426;5.444;2023-03-01T09:16:41;8.73;;;4.90;;
48613;SDS011;34408;51.426;5.444;2023-03-01T09:19:09;8.68;;;5.13;;
48613;SDS011;34408;51.426;5.444;2023-03-01T09:21:37;11.98;;;6.35;;
48613;SDS011;34408;51.426;5.444;2023-03-01T09:24:08;9.25;;;5.20;;
48613;SDS011;34408;51.426;5.444;2023-03-01T09:26:40;9.05;;;4.72;;
48613;SDS011;34408;51.426;5.444;2023-03-01T09:29:09;10.10;;;4.82;;
48613;SDS011;34408;51.426;5.444;2023-03-01T09:31:37;16.27;;;6.60;;
48613;SDS011;34408;51.426;5.444;2023-03-01T09:34:06;9.30;;;5.40;;
48613;SDS011;34408;51.426;5.444;2023-03-01T09:36:35;8.75;;;5.15;;
48613;SDS011;34408;51.426;5.444;2023-03-01T09:39:03;16.73;;;4.88;;
48613;SDS011;34408;51.426;5.444;2023-03-01T09:41:46;8.95;;;4.60;;
48613;SDS011;34408;51.426;5.444;2023-03-01T09:47:05;16.88;;;5.30;;
48613;SDS011;34408;51.426;5.444;2023-03-01T09:49:40;13.95;;;5.50;;
48613;SDS011;34408;51.426;5.444;2023-03-01T09:52:19;14.30;;;5.05;;
48613;SDS011;34408;51.426;5.444;2023-03-01T09:54:54;16.77;;;5.82;;
48613;SDS011;34408;51.426;5.444;2023-03-01T09:57:26;12.98;;;5.65;;
48613;SDS011;34408;51.426;5.444;2023-03-01T10:00:03;10.70;;;5.43;;
48613;SDS011;34408;51.426;5.444;2023-03-01T10:02:41;11.25;;;4.78;;
48613;SDS011;34408;51.426;5.444;2023-03-01T10:05:18;8.57;;;4.90;;
48613;SDS011;34408;51.426;5.444;2023-03-01T10:07:54;7.78;;;5.13;;
48613;SDS011;34408;51.426;5.444;2023-03-01T10:10:34;9.73;;;5.30;;
48613;SDS011;34408;51.426;5.444;2023-03-01T10:13:08;19.30;;;5.90;;
48613;SDS011;34408;51.426;5.444;2023-03-01T10:15:43;14.50;;;5.85;;
48613;SDS011;34408;51.426;5.444;2023-03-01T10:18:16;15.05;;;5.15;;
48613;SDS011;34408;51.426;5.444;2023-03-01T10:20:51;9.85;;;5.22;;
48613;SDS011;34408;51.426;5.444;2023-03-01T10:23:22;12.75;;;5.68;;
48613;SDS011;34408;51.426;5.444;2023-03-01T10:25:54;11.98;;;6.20;;
48613;SDS011;34408;51.426;5.444;2023-03-01T10:28:31;7.72;;;5.15;;
48613;SDS011;34408;51.426;5.444;2023-03-01T10:31:12;7.47;;;4.80;;
48613;SDS011;34408;51.426;5.444;2023-03-01T10:33:43;9.27;;;4.90;;
48613;SDS011;34408;51.426;5.444;2023-03-01T10:36:15;12.60;;;5.93;;
48613;SDS011;34408;51.426;5.444;2023-03-01T10:38:47;10.48;;;5.70;;
48613;SDS011;34408;51.426;5.444;2023-03-01T10:41:18;10.65;;;5.15;;
48613;SDS011;34408;51.426;5.444;2023-03-01T10:43:47;8.68;;;5.53;;
48613;SDS011;34408;51.426;5.444;2023-03-01T10:46:23;9.05;;;5.57;;
48613;SDS011;34408;51.426;5.444;2023-03-01T10:49:06;7.78;;;5.00;;
48613;SDS011;34408;51.426;5.444;2023-03-01T10:51:40;7.97;;;4.93;;
48613;SDS011;34408;51.426;5.444;2023-03-01T10:54:15;7.85;;;4.78;;
48613;SDS011;34408;51.426;5.444;2023-03-01T10:56:48;7.93;;;4.78;;
48613;SDS011;34408;51.426;5.444;2023-03-01T10:59:22;8.80;;;5.47;;
48613;SDS011;34408;51.426;5.444;2023-03-01T11:02:02;9.82;;;5.15;;
48613;SDS011;34408;51.426;5.444;2023-03-01T11:05:00;9.65;;;5.90;;
48613;SDS011;34408;51.426;5.444;2023-03-01T11:07:31;8.85;;;6.00;;
48613;SDS011;34408;51.426;5.444;2023-03-01T11:10:17;9.88;;;6.28;;
48613;SDS011;34408;51.426;5.444;2023-03-01T11:12:45;9.43;;;5.60;;
48613;SDS011;34408;51.426;5.444;2023-03-01T11:15:20;10.10;;;6.50;;
48613;SDS011;34408;51.426;5.444;2023-03-01T11:17:51;11.10;;;5.78;;
48613;SDS011;34408;51.426;5.444;2023-03-01T11:20:34;9.02;;;5.53;;
48613;SDS011;34408;51.426;5.444;2023-03-01T11:23:05;10.07;;;6.13;;
48613;SDS011;34408;51.426;5.444;2023-03-01T11:25:39;9.60;;;5.38;;
48613;SDS011;34408;51.426;5.444;2023-03-01T11:28:12;9.23;;;5.38;;
48613;SDS011;34408;51.426;5.444;2023-03-01T11:30:45;8.98;;;5.47;;
48613;SDS011;34408;51.426;5.444;2023-03-01T11:33:35;11.63;;;6.55;;
48613;SDS011;34408;51.426;5.444;2023-03-01T11:36:11;14.07;;;6.32;;
48613;SDS011;34408;51.426;5.444;2023-03-01T11:38:45;13.73;;;5.68;;
48613;SDS011;34408;51.426;5.444;2023-03-01T11:41:14;9.95;;;5.78;;
48613;SDS011;34408;51.426;5.444;2023-03-01T11:43:47;10.73;;;5.85;;
48613;SDS011;34408;51.426;5.444;2023-03-01T11:52:09;9.18;;;5.68;;
48613;SDS011;34408;51.426;5.444;2023-03-01T11:54:50;7.82;;;5.40;;
48613;SDS011;34408;51.426;5.444;2023-03-01T11:57:37;10.90;;;5.38;;
48613;SDS011;34408;51.426;5.444;2023-03-01T12:00:21;8.35;;;4.72;;
48613;SDS011;34408;51.426;5.444;2023-03-01T12:03:11;7.65;;;5.13;;
48613;SDS011;34408;51.426;5.444;2023-03-01T12:05:59;6.75;;;4.65;;
48613;SDS011;34408;51.426;5.444;2023-03-01T12:08:39;7.97;;;4.93;;
48613;SDS011;34408;51.426;5.444;2023-03-01T12:11:19;11.07;;;4.50;;
48613;SDS011;34408;51.426;5.444;2023-03-01T12:14:02;8.38;;;4.65;;
48613;SDS011;34408;51.426;5.444;2023-03-01T12:17:03;10.30;;;5.38;;
48613;SDS011;34408;51.426;5.444;2023-03-01T12:19:49;7.47;;;5.20;;
48613;SDS011;34408;51.426;5.444;2023-03-01T12:22:43;8.63;;;5.25;;
48613;SDS011;34408;51.426;5.444;2023-03-01T12:25:27;7.38;;;4.55;;
48613;SDS011;34408;51.426;5.444;2023-03-01T12:28:17;9.32;;;5.38;;
48613;SDS011;34408;51.426;5.444;2023-03-01T12:34:00;7.88;;;5.10;;
48613;SDS011;34408;51.426;5.444;2023-03-01T12:36:41;8.20;;;4.68;;
48613;SDS011;34408;51.426;5.444;2023-03-01T12:39:30;10.40;;;5.80;;
48613;SDS011;34408;51.426;5.444;2023-03-01T12:42:10;9.18;;;5.18;;
48613;SDS011;34408;51.426;5.444;2023-03-01T12:44:51;7.70;;;5.35;;
48613;SDS011;34408;51.426;5.444;2023-03-01T12:47:38;7.20;;;5.20;;
48613;SDS011;34408;51.426;5.444;2023-03-01T12:50:21;7.97;;;4.93;;
48613;SDS011;34408;51.426;5.444;2023-03-01T12:52:51;7.75;;;4.95;;
48613;SDS011;34408;51.426;5.444;2023-03-01T12:55:24;7.50;;;4.93;;
48613;SDS011;34408;51.426;5.444;2023-03-01T12:57:59;8.75;;;5.70;;
48613;SDS011;34408;51.426;5.444;2023-03-01T13:00:38;7.57;;;5.18;;
48613;SDS011;34408;51.426;5.444;2023-03-01T13:03:15;7.47;;;4.43;;
48613;SDS011;34408;51.426;5.444;2023-03-01T13:05:54;7.03;;;4.55;;
48613;SDS011;34408;51.426;5.444;2023-03-01T13:08:36;9.15;;;4.38;;
48613;SDS011;34408;51.426;5.444;2023-03-01T13:11:12;8.93;;;5.03;;
48613;SDS011;34408;51.426;5.444;2023-03-01T13:13:45;6.78;;;4.30;;
48613;SDS011;34408;51.426;5.444;2023-03-01T13:16:39;10.18;;;5.25;;
48613;SDS011;34408;51.426;5.444;2023-03-01T13:19:12;6.75;;;4.47;;
48613;SDS011;34408;51.426;5.444;2023-03-01T13:21:42;10.30;;;5.05;;
48613;SDS011;34408;51.426;5.444;2023-03-01T13:24:23;8.07;;;4.80;;
48613;SDS011;34408;51.426;5.444;2023-03-01T13:27:09;6.07;;;4.38;;
48613;SDS011;34408;51.426;5.444;2023-03-01T13:29:43;8.13;;;4.70;;
48613;SDS011;34408;51.426;5.444;2023-03-01T13:32:20;8.40;;;4.63;;
48613;SDS011;34408;51.426;5.444;2023-03-01T13:41:12;9.30;;;4.43;;
48613;SDS011;34408;51.426;5.444;2023-03-01T13:43:41;8.15;;;4.20;;
48613;SDS011;34408;51.426;5.444;2023-03-01T13:46:11;6.75;;;4.38;;
48613;SDS011;34408;51.426;5.444;2023-03-01T13:48:47;7.63;;;3.97;;
48613;SDS011;34408;51.426;5.444;2023-03-01T13:51:20;8.02;;;4.70;;
48613;SDS011;34408;51.426;5.444;2023-03-01T13:53:50;6.40;;;4.32;;
48613;SDS011;34408;51.426;5.444;2023-03-01T13:56:21;7.32;;;4.68;;
48613;SDS011;34408;51.426;5.444;2023-03-01T13:58:53;6.68;;;4.32;;
48613;SDS011;34408;51.426;5.444;2023-03-01T14:01:28;9.32;;;4.72;;
48613;SDS011;34408;51.426;5.444;2023-03-01T14:04:00;7.80;;;4.30;;
48613;SDS011;34408;51.426;5.444;2023-03-01T14:06:30;7.60;;;4.40;;
48613;SDS011;34408;51.426;5.444;2023-03-01T14:09:02;9.15;;;5.07;;
48613;SDS011;34408;51.426;5.444;2023-03-01T14:11:52;8.93;;;4.63;;
48613;SDS011;34408;51.426;5.444;2023-03-01T14:14:35;9.55;;;5.13;;
48613;SDS011;34408;51.426;5.444;2023-03-01T14:17:13;8.02;;;4.32;;
48613;SDS011;34408;51.426;5.444;2023-03-01T14:19:59;11.77;;;4.70;;
48613;SDS011;34408;51.426;5.444;2023-03-01T14:22:32;9.00;;;4.55;;
48613;SDS011;34408;51.426;5.444;2023-03-01T14:25:02;9.85;;;4.82;;
48613;SDS011;34408;51.426;5.444;2023-03-01T14:27:33;6.60;;;4.78;;
48613;SDS011;34408;51.426;5.444;2023-03-01T14:30:10;6.38;;;4.03;;
48613;SDS011;34408;51.426;5.444;2023-03-01T14:32:42;7.53;;;4.28;;
48613;SDS011;34408;51.426;5.444;2023-03-01T14:35:20;8.30;;;4.57;;
48613;SDS011;34408;51.426;5.444;2023-03-01T14:37:49;8.60;;;4.30;;
48613;SDS011;34408;51.426;5.444;2023-03-01T14:40:22;8.05;;;4.82;;
48613;SDS011;34408;51.426;5.444;2023-03-01T14:42:51;9.77;;;4.53;;
48613;SDS011;34408;51.426;5.444;2023-03-01T14:45:21;9.65;;;4.88;;
48613;SDS011;34408;51.426;5.444;2023-03-01T14:47:52;7.97;;;4.53;;
48613;SDS011;34408;51.426;5.444;2023-03-01T14:50:25;8.63;;;4.53;;
48613;SDS011;34408;51.426;5.444;2023-03-01T14:52:55;6.22;;;3.78;;
48613;SDS011;34408;51.426;5.444;2023-03-01T14:55:26;9.45;;;4.65;;
48613;SDS011;34408;51.426;5.444;2023-03-01T14:57:56;13.70;;;4.72;;
48613;SDS011;34408;51.426;5.444;2023-03-01T15:00:29;8.57;;;5.20;;
48613;SDS011;34408;51.426;5.444;2023-03-01T15:03:00;6.88;;;4.20;;
48613;SDS011;34408;51.426;5.444;2023-03-01T15:05:41;7.57;;;4.18;;
48613;SDS011;34408;51.426;5.444;2023-03-01T15:08:11;8.10;;;4.70;;
48613;SDS011;34408;51.426;5.444;2023-03-01T15:10:55;7.07;;;4.10;;
48613;SDS011;34408;51.426;5.444;2023-03-01T15:13:25;9.93;;;4.65;;
48613;SDS011;34408;51.426;5.444;2023-03-01T15:16:00;7.28;;;4.45;;
48613;SDS011;34408;51.426;5.444;2023-03-01T15:18:31;8.45;;;4.97;;
48613;SDS011;34408;51.426;5.444;2023-03-01T15:21:06;6.25;;;4.40;;
48613;SDS011;34408;51.426;5.444;2023-03-01T15:23:36;9.02;;;4.45;;
48613;SDS011;34408;51.426;5.444;2023-03-01T15:26:05;7.63;;;4.05;;
48613;SDS011;34408;51.426;5.444;2023-03-01T15:28:34;9.93;;;4.55;;
48613;SDS011;34408;51.426;5.444;2023-03-01T15:31:17;6.95;;;4.03;;
48613;SDS011;34408;51.426;5.444;2023-03-01T15:33:47;7.72;;;5.38;;